Aviation Digital Data Service (ADDS)

Output produced by METARs form (1521 UTC 10 August 2022)
found at http://www.aviationweather.gov/metar/data/
 
METAR text: UTSS 101500Z 09012KT 9999 NSC 26/08 Q1009 R09/70D NOSIG
Conditions at: UTSS (SAMARKAND , UZ) observed 1500 UTC 10 August 2022
Temperature: 26.0°C (79°F)
Dewpoint: 8.0°C (46°F) [RH = 32%]
Pressure (altimeter): 29.79 inches Hg (1009.0 mb)
Winds: from the E (90 degrees) at 14 MPH (12 knots; 6.2 m/s)
Visibility: 6 or more miles (10+ km)
Ceiling: at least 12,000 feet AGL
Clouds: sky clear below 12,000 feet AGL
Weather: no significant weather observed at this time

METAR text: UTSS 101430Z 03012KT 9999 NSC 27/08 Q1009 R09/70D NOSIG
Conditions at: UTSS (SAMARKAND , UZ) observed 1430 UTC 10 August 2022
Temperature: 27.0°C (81°F)
Dewpoint: 8.0°C (46°F) [RH = 30%]
Pressure (altimeter): 29.79 inches Hg (1009.0 mb)
Winds: from the NNE (30 degrees) at 14 MPH (12 knots; 6.2 m/s)
Visibility: 6 or more miles (10+ km)
Ceiling: at least 12,000 feet AGL
Clouds: sky clear below 12,000 feet AGL
Weather: no significant weather observed at this time

METAR text: UTSS 101400Z 08012KT 9999 NSC 28/08 Q1009 R09/CLRD70 NOSIG
Conditions at: UTSS (SAMARKAND , UZ) observed 1400 UTC 10 August 2022
Temperature: 28.0°C (82°F)
Dewpoint: 8.0°C (46°F) [RH = 28%]
Pressure (altimeter): 29.79 inches Hg (1009.0 mb)
Winds: from the E (80 degrees) at 14 MPH (12 knots; 6.2 m/s)
Visibility: 6 or more miles (10+ km)
Ceiling: at least 12,000 feet AGL
Clouds: sky clear below 12,000 feet AGL
Weather: no significant weather observed at this time

METAR text: UTSS 101330Z 08014KT 050V110 9999 NSC 29/08 Q1009 R09/70D NOSIG
Conditions at: UTSS (SAMARKAND , UZ) observed 1330 UTC 10 August 2022
Temperature: 29.0°C (84°F)
Dewpoint: 8.0°C (46°F) [RH = 27%]
Pressure (altimeter): 29.79 inches Hg (1009.0 mb)
Winds: from the E (80 degrees) at 16 MPH (14 knots; 7.2 m/s)
Visibility: 6 or more miles (10+ km)
Ceiling: at least 12,000 feet AGL
Clouds: sky clear below 12,000 feet AGL
Weather: no significant weather observed at this time

METAR text: UTSS 101300Z 08014KT 9999 NSC 29/08 Q1009 R09/70D NOSIG
Conditions at: UTSS (SAMARKAND , UZ) observed 1300 UTC 10 August 2022
Temperature: 29.0°C (84°F)
Dewpoint: 8.0°C (46°F) [RH = 27%]
Pressure (altimeter): 29.79 inches Hg (1009.0 mb)
Winds: from the E (80 degrees) at 16 MPH (14 knots; 7.2 m/s)
Visibility: 6 or more miles (10+ km)
Ceiling: at least 12,000 feet AGL
Clouds: sky clear below 12,000 feet AGL
Weather: no significant weather observed at this time

METAR text: UTSS 101230Z 09014KT 9999 NSC 30/08 Q1009 R09/CLRD70 NOSIG
Conditions at: UTSS (SAMARKAND , UZ) observed 1230 UTC 10 August 2022
Temperature: 30.0°C (86°F)
Dewpoint: 8.0°C (46°F) [RH = 25%]
Pressure (altimeter): 29.79 inches Hg (1009.0 mb)
Winds: from the E (90 degrees) at 16 MPH (14 knots; 7.2 m/s)
Visibility: 6 or more miles (10+ km)
Ceiling: at least 12,000 feet AGL
Clouds: sky clear below 12,000 feet AGL
Weather: no significant weather observed at this time

METAR text: UTSS 101200Z 08014KT 050V110 9999 NSC 30/08 Q1009 R09/CLRD70 NOSIG
Conditions at: UTSS (SAMARKAND , UZ) observed 1200 UTC 10 August 2022
Temperature: 30.0°C (86°F)
Dewpoint: 8.0°C (46°F) [RH = 25%]
Pressure (altimeter): 29.79 inches Hg (1009.0 mb)
Winds: from the E (80 degrees) at 16 MPH (14 knots; 7.2 m/s)
Visibility: 6 or more miles (10+ km)
Ceiling: at least 12,000 feet AGL
Clouds: sky clear below 12,000 feet AGL
Weather: no significant weather observed at this time

METAR text: UTSS 101130Z 08012KT 040V110 9999 NSC 31/08 Q1009 R09/CLRD70 NOSIG
Conditions at: UTSS (SAMARKAND , UZ) observed 1130 UTC 10 August 2022
Temperature: 31.0°C (88°F)
Dewpoint: 8.0°C (46°F) [RH = 24%]
Pressure (altimeter): 29.79 inches Hg (1009.0 mb)
Winds: from the E (80 degrees) at 14 MPH (12 knots; 6.2 m/s)
Visibility: 6 or more miles (10+ km)
Ceiling: at least 12,000 feet AGL
Clouds: sky clear below 12,000 feet AGL
Weather: no significant weather observed at this time

METAR text: UTSS 101100Z 09014KT 050V110 9999 NSC 31/08 Q1009 R09/70D NOSIG
Conditions at: UTSS (SAMARKAND , UZ) observed 1100 UTC 10 August 2022
Temperature: 31.0°C (88°F)
Dewpoint: 8.0°C (46°F) [RH = 24%]
Pressure (altimeter): 29.79 inches Hg (1009.0 mb)
Winds: from the E (90 degrees) at 16 MPH (14 knots; 7.2 m/s)
Visibility: 6 or more miles (10+ km)
Ceiling: at least 12,000 feet AGL
Clouds: sky clear below 12,000 feet AGL
Weather: no significant weather observed at this time

METAR text: UTSS 101030Z 09012KT 050V120 9999 NSC 32/08 Q1009 R09/CLRD70 NOSIG
Conditions at: UTSS (SAMARKAND , UZ) observed 1030 UTC 10 August 2022
Temperature: 32.0°C (90°F)
Dewpoint: 8.0°C (46°F) [RH = 23%]
Pressure (altimeter): 29.79 inches Hg (1009.0 mb)
Winds: from the E (90 degrees) at 14 MPH (12 knots; 6.2 m/s)
Visibility: 6 or more miles (10+ km)
Ceiling: at least 12,000 feet AGL
Clouds: sky clear below 12,000 feet AGL
Weather: no significant weather observed at this time

METAR text: UTSS 101000Z 08008KT 030V140 9999 NSC 31/08 Q1009 R09/CLRD70 NOSIG
Conditions at: UTSS (SAMARKAND , UZ) observed 1000 UTC 10 August 2022
Temperature: 31.0°C (88°F)
Dewpoint: 8.0°C (46°F) [RH = 24%]
Pressure (altimeter): 29.79 inches Hg (1009.0 mb)
Winds: from the E (80 degrees) at 9 MPH (8 knots; 4.1 m/s)
Visibility: 6 or more miles (10+ km)
Ceiling: at least 12,000 feet AGL
Clouds: sky clear below 12,000 feet AGL
Weather: no significant weather observed at this time

METAR text: UTSS 100930Z 07008KT 020V120 9999 NSC 32/09 Q1009 R09/CLRD70 NOSIG
Conditions at: UTSS (SAMARKAND , UZ) observed 0930 UTC 10 August 2022
Temperature: 32.0°C (90°F)
Dewpoint: 9.0°C (48°F) [RH = 24%]
Pressure (altimeter): 29.79 inches Hg (1009.0 mb)
Winds: from the ENE (70 degrees) at 9 MPH (8 knots; 4.1 m/s)
Visibility: 6 or more miles (10+ km)
Ceiling: at least 12,000 feet AGL
Clouds: sky clear below 12,000 feet AGL
Weather: no significant weather observed at this time

METAR text: UTSS 100900Z 07008KT 020V110 9999 NSC 31/09 Q1010 R09/CLRD70 NOSIG
Conditions at: UTSS (SAMARKAND , UZ) observed 0900 UTC 10 August 2022
Temperature: 31.0°C (88°F)
Dewpoint: 9.0°C (48°F) [RH = 26%]
Pressure (altimeter): 29.82 inches Hg (1010.0 mb)
Winds: from the ENE (70 degrees) at 9 MPH (8 knots; 4.1 m/s)
Visibility: 6 or more miles (10+ km)
Ceiling: at least 12,000 feet AGL
Clouds: sky clear below 12,000 feet AGL
Weather: no significant weather observed at this time

METAR text: UTSS 100830Z 06008KT 010V110 9999 NSC 31/08 Q1010 R09/70D NOSIG
Conditions at: UTSS (SAMARKAND , UZ) observed 0830 UTC 10 August 2022
Temperature: 31.0°C (88°F)
Dewpoint: 8.0°C (46°F) [RH = 24%]
Pressure (altimeter): 29.82 inches Hg (1010.0 mb)
Winds: from the ENE (60 degrees) at 9 MPH (8 knots; 4.1 m/s)
Visibility: 6 or more miles (10+ km)
Ceiling: at least 12,000 feet AGL
Clouds: sky clear below 12,000 feet AGL
Weather: no significant weather observed at this time

METAR text: UTSS 100800Z 06008KT 9999 NSC 31/10 Q1010 R09/70D NOSIG
Conditions at: UTSS (SAMARKAND , UZ) observed 0800 UTC 10 August 2022
Temperature: 31.0°C (88°F)
Dewpoint: 10.0°C (50°F) [RH = 27%]
Pressure (altimeter): 29.82 inches Hg (1010.0 mb)
Winds: from the ENE (60 degrees) at 9 MPH (8 knots; 4.1 m/s)
Visibility: 6 or more miles (10+ km)
Ceiling: at least 12,000 feet AGL
Clouds: sky clear below 12,000 feet AGL
Weather: no significant weather observed at this time

METAR text: UTSS 100730Z 04006KT 320V110 9999 NSC 30/09 Q1010 R09/CLRD70 NOSIG
Conditions at: UTSS (SAMARKAND , UZ) observed 0730 UTC 10 August 2022
Temperature: 30.0°C (86°F)
Dewpoint: 9.0°C (48°F) [RH = 27%]
Pressure (altimeter): 29.82 inches Hg (1010.0 mb)
Winds: from the NE (40 degrees) at 7 MPH (6 knots; 3.1 m/s)
Visibility: 6 or more miles (10+ km)
Ceiling: at least 12,000 feet AGL
Clouds: sky clear below 12,000 feet AGL
Weather: no significant weather observed at this time

METAR text: UTSS 100700Z 09010KT 050V120 9999 NSC 31/07 Q1010 R09/70D NOSIG
Conditions at: UTSS (SAMARKAND , UZ) observed 0700 UTC 10 August 2022
Temperature: 31.0°C (88°F)
Dewpoint: 7.0°C (45°F) [RH = 22%]
Pressure (altimeter): 29.82 inches Hg (1010.0 mb)
Winds: from the E (90 degrees) at 12 MPH (10 knots; 5.1 m/s)
Visibility: 6 or more miles (10+ km)
Ceiling: at least 12,000 feet AGL
Clouds: sky clear below 12,000 feet AGL
Weather: no significant weather observed at this time

METAR text: UTSS 100630Z 09012KT 050V120 9999 NSC 30/08 Q1010 R09/CLRD70 NOSIG
Conditions at: UTSS (SAMARKAND , UZ) observed 0630 UTC 10 August 2022
Temperature: 30.0°C (86°F)
Dewpoint: 8.0°C (46°F) [RH = 25%]
Pressure (altimeter): 29.82 inches Hg (1010.0 mb)
Winds: from the E (90 degrees) at 14 MPH (12 knots; 6.2 m/s)
Visibility: 6 or more miles (10+ km)
Ceiling: at least 12,000 feet AGL
Clouds: sky clear below 12,000 feet AGL
Weather: no significant weather observed at this time

METAR text: UTSS 100600Z 11012KT 070V140 9999 NSC 30/08 Q1010 R09/70D NOSIG
Conditions at: UTSS (SAMARKAND , UZ) observed 0600 UTC 10 August 2022
Temperature: 30.0°C (86°F)
Dewpoint: 8.0°C (46°F) [RH = 25%]
Pressure (altimeter): 29.82 inches Hg (1010.0 mb)
Winds: from the ESE (110 degrees) at 14 MPH (12 knots; 6.2 m/s)
Visibility: 6 or more miles (10+ km)
Ceiling: at least 12,000 feet AGL
Clouds: sky clear below 12,000 feet AGL
Weather: no significant weather observed at this time

METAR text: UTSS 100530Z 12012KT 9999 NSC 29/09 Q1010 R09/70D NOSIG
Conditions at: UTSS (SAMARKAND , UZ) observed 0530 UTC 10 August 2022
Temperature: 29.0°C (84°F)
Dewpoint: 9.0°C (48°F) [RH = 29%]
Pressure (altimeter): 29.82 inches Hg (1010.0 mb)
Winds: from the ESE (120 degrees) at 14 MPH (12 knots; 6.2 m/s)
Visibility: 6 or more miles (10+ km)
Ceiling: at least 12,000 feet AGL
Clouds: sky clear below 12,000 feet AGL
Weather: no significant weather observed at this time

METAR text: UTSS 100500Z 10012KT 9999 NSC 28/08 Q1010 R09/CLRD70 NOSIG
Conditions at: UTSS (SAMARKAND , UZ) observed 0500 UTC 10 August 2022
Temperature: 28.0°C (82°F)
Dewpoint: 8.0°C (46°F) [RH = 28%]
Pressure (altimeter): 29.82 inches Hg (1010.0 mb)
Winds: from the E (100 degrees) at 14 MPH (12 knots; 6.2 m/s)
Visibility: 6 or more miles (10+ km)
Ceiling: at least 12,000 feet AGL
Clouds: sky clear below 12,000 feet AGL
Weather: no significant weather observed at this time

METAR text: UTSS 100430Z 11012KT 9999 NSC 28/09 Q1010 R09/70D NOSIG
Conditions at: UTSS (SAMARKAND , UZ) observed 0430 UTC 10 August 2022
Temperature: 28.0°C (82°F)
Dewpoint: 9.0°C (48°F) [RH = 30%]
Pressure (altimeter): 29.82 inches Hg (1010.0 mb)
Winds: from the ESE (110 degrees) at 14 MPH (12 knots; 6.2 m/s)
Visibility: 6 or more miles (10+ km)
Ceiling: at least 12,000 feet AGL
Clouds: sky clear below 12,000 feet AGL
Weather: no significant weather observed at this time

METAR text: UTSS 100400Z 11012KT 9999 NSC 27/09 Q1010 R09/70D NOSIG
Conditions at: UTSS (SAMARKAND , UZ) observed 0400 UTC 10 August 2022
Temperature: 27.0°C (81°F)
Dewpoint: 9.0°C (48°F) [RH = 32%]
Pressure (altimeter): 29.82 inches Hg (1010.0 mb)
Winds: from the ESE (110 degrees) at 14 MPH (12 knots; 6.2 m/s)
Visibility: 6 or more miles (10+ km)
Ceiling: at least 12,000 feet AGL
Clouds: sky clear below 12,000 feet AGL
Weather: no significant weather observed at this time

METAR text: UTSS 100330Z 12010KT 9999 NSC 26/10 Q1010 R09/70D NOSIG
Conditions at: UTSS (SAMARKAND , UZ) observed 0330 UTC 10 August 2022
Temperature: 26.0°C (79°F)
Dewpoint: 10.0°C (50°F) [RH = 37%]
Pressure (altimeter): 29.82 inches Hg (1010.0 mb)
Winds: from the ESE (120 degrees) at 12 MPH (10 knots; 5.1 m/s)
Visibility: 6 or more miles (10+ km)
Ceiling: at least 12,000 feet AGL
Clouds: sky clear below 12,000 feet AGL
Weather: no significant weather observed at this time

METAR text: UTSS 100300Z 12008KT 9999 NSC 25/10 Q1010 R09/70D NOSIG
Conditions at: UTSS (SAMARKAND , UZ) observed 0300 UTC 10 August 2022
Temperature: 25.0°C (77°F)
Dewpoint: 10.0°C (50°F) [RH = 39%]
Pressure (altimeter): 29.82 inches Hg (1010.0 mb)
Winds: from the ESE (120 degrees) at 9 MPH (8 knots; 4.1 m/s)
Visibility: 6 or more miles (10+ km)
Ceiling: at least 12,000 feet AGL
Clouds: sky clear below 12,000 feet AGL
Weather: no significant weather observed at this time

METAR text: UTSS 100230Z 13010KT 100V160 9999 NSC 24/09 Q1010 R09/70D NOSIG
Conditions at: UTSS (SAMARKAND , UZ) observed 0230 UTC 10 August 2022
Temperature: 24.0°C (75°F)
Dewpoint: 9.0°C (48°F) [RH = 38%]
Pressure (altimeter): 29.82 inches Hg (1010.0 mb)
Winds: from the SE (130 degrees) at 12 MPH (10 knots; 5.1 m/s)
Visibility: 6 or more miles (10+ km)
Ceiling: at least 12,000 feet AGL
Clouds: sky clear below 12,000 feet AGL
Weather: no significant weather observed at this time

METAR text: UTSS 100200Z 14012KT 100V170 9999 NSC 23/09 Q1010 R27/CLRD70 NOSIG
Conditions at: UTSS (SAMARKAND , UZ) observed 0200 UTC 10 August 2022
Temperature: 23.0°C (73°F)
Dewpoint: 9.0°C (48°F) [RH = 41%]
Pressure (altimeter): 29.82 inches Hg (1010.0 mb)
Winds: from the SE (140 degrees) at 14 MPH (12 knots; 6.2 m/s)
Visibility: 6 or more miles (10+ km)
Ceiling: at least 12,000 feet AGL
Clouds: sky clear below 12,000 feet AGL
Weather: no significant weather observed at this time

METAR text: UTSS 100130Z 13010KT 9999 100V160 NSC 22/09 Q1010 R27/70D NOSIG
Conditions at: UTSS (SAMARKAND , UZ) observed 0130 UTC 10 August 2022
Temperature: 22.0°C (72°F)
Dewpoint: 9.0°C (48°F) [RH = 43%]
Pressure (altimeter): 29.82 inches Hg (1010.0 mb)
Winds: from the SE (130 degrees) at 12 MPH (10 knots; 5.1 m/s)
Visibility: 6 or more miles (10+ km)
Ceiling: at least 12,000 feet AGL
Clouds: sky clear below 12,000 feet AGL
Weather: no significant weather observed at this time

METAR text: UTSS 100100Z 17006KT 140V220 9999 NSC 22/09 Q1009 R27/70D NOSIG
Conditions at: UTSS (SAMARKAND , UZ) observed 0100 UTC 10 August 2022
Temperature: 22.0°C (72°F)
Dewpoint: 9.0°C (48°F) [RH = 43%]
Pressure (altimeter): 29.79 inches Hg (1009.0 mb)
Winds: from the S (170 degrees) at 7 MPH (6 knots; 3.1 m/s)
Visibility: 6 or more miles (10+ km)
Ceiling: at least 12,000 feet AGL
Clouds: sky clear below 12,000 feet AGL
Weather: no significant weather observed at this time

METAR text: UTSS 100030Z 15006KT 9999 NSC 22/09 Q1009 R09/70D NOSIG
Conditions at: UTSS (SAMARKAND , UZ) observed 0030 UTC 10 August 2022
Temperature: 22.0°C (72°F)
Dewpoint: 9.0°C (48°F) [RH = 43%]
Pressure (altimeter): 29.79 inches Hg (1009.0 mb)
Winds: from the SSE (150 degrees) at 7 MPH (6 knots; 3.1 m/s)
Visibility: 6 or more miles (10+ km)
Ceiling: at least 12,000 feet AGL
Clouds: sky clear below 12,000 feet AGL
Weather: no significant weather observed at this time

METAR text: UTSS 100000Z 15008KT 9999 NSC 22/09 Q1009 R09/70D NOSIG
Conditions at: UTSS (SAMARKAND , UZ) observed 0000 UTC 10 August 2022
Temperature: 22.0°C (72°F)
Dewpoint: 9.0°C (48°F) [RH = 43%]
Pressure (altimeter): 29.79 inches Hg (1009.0 mb)
Winds: from the SSE (150 degrees) at 9 MPH (8 knots; 4.1 m/s)
Visibility: 6 or more miles (10+ km)
Ceiling: at least 12,000 feet AGL
Clouds: sky clear below 12,000 feet AGL
Weather: no significant weather observed at this time

METAR text: UTSS 092330Z 18006KT 140V220 9999 NSC 22/10 Q1009 R27/CLRD70 NOSIG
Conditions at: UTSS (SAMARKAND , UZ) observed 2330 UTC 09 August 2022
Temperature: 22.0°C (72°F)
Dewpoint: 10.0°C (50°F) [RH = 46%]
Pressure (altimeter): 29.79 inches Hg (1009.0 mb)
Winds: from the S (180 degrees) at 7 MPH (6 knots; 3.1 m/s)
Visibility: 6 or more miles (10+ km)
Ceiling: at least 12,000 feet AGL
Clouds: sky clear below 12,000 feet AGL
Weather: no significant weather observed at this time

METAR text: UTSS 092300Z VRB02KT 9999 NSC 22/09 Q1009 R09/CLRD70 NOSIG
Conditions at: UTSS (SAMARKAND , UZ) observed 2300 UTC 09 August 2022
Temperature: 22.0°C (72°F)
Dewpoint: 9.0°C (48°F) [RH = 43%]
Pressure (altimeter): 29.79 inches Hg (1009.0 mb)
Winds: variable direction winds at 2 MPH (2 knots; 1.0 m/s)
Visibility: 6 or more miles (10+ km)
Ceiling: at least 12,000 feet AGL
Clouds: sky clear below 12,000 feet AGL
Weather: no significant weather observed at this time

METAR text: UTSS 092230Z VRB02KT 9999 NSC 21/12 Q1009 R09/CLRD70 NOSIG
Conditions at: UTSS (SAMARKAND , UZ) observed 2230 UTC 09 August 2022
Temperature: 21.0°C (70°F)
Dewpoint: 12.0°C (54°F) [RH = 56%]
Pressure (altimeter): 29.79 inches Hg (1009.0 mb)
Winds: variable direction winds at 2 MPH (2 knots; 1.0 m/s)
Visibility: 6 or more miles (10+ km)
Ceiling: at least 12,000 feet AGL
Clouds: sky clear below 12,000 feet AGL
Weather: no significant weather observed at this time

METAR text: UTSS 092200Z 31004KT 220V350 9999 NSC 21/11 Q1009 R09/CLRD70 NOSIG
Conditions at: UTSS (SAMARKAND , UZ) observed 2200 UTC 09 August 2022
Temperature: 21.0°C (70°F)
Dewpoint: 11.0°C (52°F) [RH = 53%]
Pressure (altimeter): 29.79 inches Hg (1009.0 mb)
Winds: from the NW (310 degrees) at 5 MPH (4 knots; 2.1 m/s)
Visibility: 6 or more miles (10+ km)
Ceiling: at least 12,000 feet AGL
Clouds: sky clear below 12,000 feet AGL
Weather: no significant weather observed at this time

METAR text: UTSS 092130Z VRB02KT 9999 NSC 23/10 Q1008 R09/CLRD70 NOSIG
Conditions at: UTSS (SAMARKAND , UZ) observed 2130 UTC 09 August 2022
Temperature: 23.0°C (73°F)
Dewpoint: 10.0°C (50°F) [RH = 44%]
Pressure (altimeter): 29.76 inches Hg (1008.0 mb)
Winds: variable direction winds at 2 MPH (2 knots; 1.0 m/s)
Visibility: 6 or more miles (10+ km)
Ceiling: at least 12,000 feet AGL
Clouds: sky clear below 12,000 feet AGL
Weather: no significant weather observed at this time

METAR text: UTSS 092100Z 00000KT 9999 NSC 23/11 Q1009 R09/70D NOSIG
Conditions at: UTSS (SAMARKAND , UZ) observed 2100 UTC 09 August 2022
Temperature: 23.0°C (73°F)
Dewpoint: 11.0°C (52°F) [RH = 47%]
Pressure (altimeter): 29.79 inches Hg (1009.0 mb)
Winds: calm
Visibility: 6 or more miles (10+ km)
Ceiling: at least 12,000 feet AGL
Clouds: sky clear below 12,000 feet AGL
Weather: no significant weather observed at this time

METAR text: UTSS 092030Z 00000KT 9999 NSC 21/12 Q1009 R09/70D NOSIG
Conditions at: UTSS (SAMARKAND , UZ) observed 2030 UTC 09 August 2022
Temperature: 21.0°C (70°F)
Dewpoint: 12.0°C (54°F) [RH = 56%]
Pressure (altimeter): 29.79 inches Hg (1009.0 mb)
Winds: calm
Visibility: 6 or more miles (10+ km)
Ceiling: at least 12,000 feet AGL
Clouds: sky clear below 12,000 feet AGL
Weather: no significant weather observed at this time

METAR text: UTSS 092000Z 22002KT 9999 NSC 24/13 Q1009 R09/70D NOSIG
Conditions at: UTSS (SAMARKAND , UZ) observed 2000 UTC 09 August 2022
Temperature: 24.0°C (75°F)
Dewpoint: 13.0°C (55°F) [RH = 50%]
Pressure (altimeter): 29.79 inches Hg (1009.0 mb)
Winds: from the SW (220 degrees) at 2 MPH (2 knots; 1.0 m/s)
Visibility: 6 or more miles (10+ km)
Ceiling: at least 12,000 feet AGL
Clouds: sky clear below 12,000 feet AGL
Weather: no significant weather observed at this time

METAR text: UTSS 091930Z 26004KT 230V290 9999 NSC 24/11 Q1009 R09/CLRD70 NOSIG
Conditions at: UTSS (SAMARKAND , UZ) observed 1930 UTC 09 August 2022
Temperature: 24.0°C (75°F)
Dewpoint: 11.0°C (52°F) [RH = 44%]
Pressure (altimeter): 29.79 inches Hg (1009.0 mb)
Winds: from the W (260 degrees) at 5 MPH (4 knots; 2.1 m/s)
Visibility: 6 or more miles (10+ km)
Ceiling: at least 12,000 feet AGL
Clouds: sky clear below 12,000 feet AGL
Weather: no significant weather observed at this time

METAR text: UTSS 091900Z 26004KT 9999 NSC 23/12 Q1009 R09/CLRD70 NOSIG
Conditions at: UTSS (SAMARKAND , UZ) observed 1900 UTC 09 August 2022
Temperature: 23.0°C (73°F)
Dewpoint: 12.0°C (54°F) [RH = 50%]
Pressure (altimeter): 29.79 inches Hg (1009.0 mb)
Winds: from the W (260 degrees) at 5 MPH (4 knots; 2.1 m/s)
Visibility: 6 or more miles (10+ km)
Ceiling: at least 12,000 feet AGL
Clouds: sky clear below 12,000 feet AGL
Weather: no significant weather observed at this time

METAR text: UTSS 091830Z VRB02KT 9999 NSC 24/12 Q1009 R09/70D NOSIG
Conditions at: UTSS (SAMARKAND , UZ) observed 1830 UTC 09 August 2022
Temperature: 24.0°C (75°F)
Dewpoint: 12.0°C (54°F) [RH = 47%]
Pressure (altimeter): 29.79 inches Hg (1009.0 mb)
Winds: variable direction winds at 2 MPH (2 knots; 1.0 m/s)
Visibility: 6 or more miles (10+ km)
Ceiling: at least 12,000 feet AGL
Clouds: sky clear below 12,000 feet AGL
Weather: no significant weather observed at this time

METAR text: UTSS 091800Z VRB02KT 9999 NSC 24/11 Q1009 R09/CLRD70 NOSIG
Conditions at: UTSS (SAMARKAND , UZ) observed 1800 UTC 09 August 2022
Temperature: 24.0°C (75°F)
Dewpoint: 11.0°C (52°F) [RH = 44%]
Pressure (altimeter): 29.79 inches Hg (1009.0 mb)
Winds: variable direction winds at 2 MPH (2 knots; 1.0 m/s)
Visibility: 6 or more miles (10+ km)
Ceiling: at least 12,000 feet AGL
Clouds: sky clear below 12,000 feet AGL
Weather: no significant weather observed at this time

METAR text: UTSS 091730Z 07004KT 9999 NSC 27/12 Q1009 R09/CLRD70 NOSIG
Conditions at: UTSS (SAMARKAND , UZ) observed 1730 UTC 09 August 2022
Temperature: 27.0°C (81°F)
Dewpoint: 12.0°C (54°F) [RH = 39%]
Pressure (altimeter): 29.79 inches Hg (1009.0 mb)
Winds: from the ENE (70 degrees) at 5 MPH (4 knots; 2.1 m/s)
Visibility: 6 or more miles (10+ km)
Ceiling: at least 12,000 feet AGL
Clouds: sky clear below 12,000 feet AGL
Weather: no significant weather observed at this time

METAR text: UTSS 091700Z 09006KT 9999 NSC 27/10 Q1009 R09/70D NOSIG
Conditions at: UTSS (SAMARKAND , UZ) observed 1700 UTC 09 August 2022
Temperature: 27.0°C (81°F)
Dewpoint: 10.0°C (50°F) [RH = 34%]
Pressure (altimeter): 29.79 inches Hg (1009.0 mb)
Winds: from the E (90 degrees) at 7 MPH (6 knots; 3.1 m/s)
Visibility: 6 or more miles (10+ km)
Ceiling: at least 12,000 feet AGL
Clouds: sky clear below 12,000 feet AGL
Weather: no significant weather observed at this time

METAR text: UTSS 091630Z 10006KT 060V150 9999 FEW065CB 27/10 Q1009 R09/70D NOSIG
Conditions at: UTSS (SAMARKAND , UZ) observed 1630 UTC 09 August 2022
Temperature: 27.0°C (81°F)
Dewpoint: 10.0°C (50°F) [RH = 34%]
Pressure (altimeter): 29.79 inches Hg (1009.0 mb)
Winds: from the E (100 degrees) at 7 MPH (6 knots; 3.1 m/s)
Visibility: 6 or more miles (10+ km)
Ceiling: at least 12,000 feet AGL
Clouds: few clouds at 6500 feet AGL
Weather: no significant weather observed at this time

METAR text: UTSS 091600Z 10004KT 050V130 9999 SCT068CB 28/10 Q1009 R27/70D NOSIG
Conditions at: UTSS (SAMARKAND , UZ) observed 1600 UTC 09 August 2022
Temperature: 28.0°C (82°F)
Dewpoint: 10.0°C (50°F) [RH = 32%]
Pressure (altimeter): 29.79 inches Hg (1009.0 mb)
Winds: from the E (100 degrees) at 5 MPH (4 knots; 2.1 m/s)
Visibility: 6 or more miles (10+ km)
Ceiling: at least 12,000 feet AGL
Clouds: scattered clouds at 6800 feet AGL
Weather: no significant weather observed at this time

METAR text: UTSS 091530Z 07004KT 040V130 9999 FEW066CB 28/11 Q1009 R27/70D NOSIG
Conditions at: UTSS (SAMARKAND , UZ) observed 1530 UTC 09 August 2022
Temperature: 28.0°C (82°F)
Dewpoint: 11.0°C (52°F) [RH = 35%]
Pressure (altimeter): 29.79 inches Hg (1009.0 mb)
Winds: from the ENE (70 degrees) at 5 MPH (4 knots; 2.1 m/s)
Visibility: 6 or more miles (10+ km)
Ceiling: at least 12,000 feet AGL
Clouds: few clouds at 6600 feet AGL
Weather: no significant weather observed at this time

METAR text: UTSS 091500Z 31004KT 270V050 9999 FEW066CB 29/11 Q1009 R27/70D NOSIG
Conditions at: UTSS (SAMARKAND , UZ) observed 1500 UTC 09 August 2022
Temperature: 29.0°C (84°F)
Dewpoint: 11.0°C (52°F) [RH = 33%]
Pressure (altimeter): 29.79 inches Hg (1009.0 mb)
Winds: from the NW (310 degrees) at 5 MPH (4 knots; 2.1 m/s)
Visibility: 6 or more miles (10+ km)
Ceiling: at least 12,000 feet AGL
Clouds: few clouds at 6600 feet AGL
Weather: no significant weather observed at this time

METAR text: UTSS 091430Z VRB02KT 9999 NSC 30/09 Q1009 R27/70D NOSIG
Conditions at: UTSS (SAMARKAND , UZ) observed 1430 UTC 09 August 2022
Temperature: 30.0°C (86°F)
Dewpoint: 9.0°C (48°F) [RH = 27%]
Pressure (altimeter): 29.79 inches Hg (1009.0 mb)
Winds: variable direction winds at 2 MPH (2 knots; 1.0 m/s)
Visibility: 6 or more miles (10+ km)
Ceiling: at least 12,000 feet AGL
Clouds: sky clear below 12,000 feet AGL
Weather: no significant weather observed at this time

METAR text: UTSS 091400Z 33004KT 290V360 9999 NSC 29/11 Q1008 R27/70D NOSIG
Conditions at: UTSS (SAMARKAND , UZ) observed 1400 UTC 09 August 2022
Temperature: 29.0°C (84°F)
Dewpoint: 11.0°C (52°F) [RH = 33%]
Pressure (altimeter): 29.76 inches Hg (1008.0 mb)
Winds: from the NNW (330 degrees) at 5 MPH (4 knots; 2.1 m/s)
Visibility: 6 or more miles (10+ km)
Ceiling: at least 12,000 feet AGL
Clouds: sky clear below 12,000 feet AGL
Weather: no significant weather observed at this time

METAR text: UTSS 091330Z 34006KT 300V020 9999 NSC 30/10 Q1008 R27/CLRD70 NOSIG
Conditions at: UTSS (SAMARKAND , UZ) observed 1330 UTC 09 August 2022
Temperature: 30.0°C (86°F)
Dewpoint: 10.0°C (50°F) [RH = 29%]
Pressure (altimeter): 29.76 inches Hg (1008.0 mb)
Winds: from the NNW (340 degrees) at 7 MPH (6 knots; 3.1 m/s)
Visibility: 6 or more miles (10+ km)
Ceiling: at least 12,000 feet AGL
Clouds: sky clear below 12,000 feet AGL
Weather: no significant weather observed at this time

METAR text: UTSS 091300Z 31004KT 270V050 9999 FEW066CB 29/11 Q1009 R27/70D NOSIG
Conditions at: UTSS (SAMARKAND , UZ) observed 1300 UTC 09 August 2022
Temperature: 29.0°C (84°F)
Dewpoint: 11.0°C (52°F) [RH = 33%]
Pressure (altimeter): 29.79 inches Hg (1009.0 mb)
Winds: from the NW (310 degrees) at 5 MPH (4 knots; 2.1 m/s)
Visibility: 6 or more miles (10+ km)
Ceiling: at least 12,000 feet AGL
Clouds: few clouds at 6600 feet AGL
Weather: no significant weather observed at this time

METAR text: UTSS 091230Z 35004KT 300V040 9999 NSC 31/11 Q1008 R27/70D NOSIG
Conditions at: UTSS (SAMARKAND , UZ) observed 1230 UTC 09 August 2022
Temperature: 31.0°C (88°F)
Dewpoint: 11.0°C (52°F) [RH = 29%]
Pressure (altimeter): 29.76 inches Hg (1008.0 mb)
Winds: from the N (350 degrees) at 5 MPH (4 knots; 2.1 m/s)
Visibility: 6 or more miles (10+ km)
Ceiling: at least 12,000 feet AGL
Clouds: sky clear below 12,000 feet AGL
Weather: no significant weather observed at this time

METAR text: UTSS 091200Z 32008KT 280V350 9999 NSC 30/10 Q1008 R27/70D NOSIG
Conditions at: UTSS (SAMARKAND , UZ) observed 1200 UTC 09 August 2022
Temperature: 30.0°C (86°F)
Dewpoint: 10.0°C (50°F) [RH = 29%]
Pressure (altimeter): 29.76 inches Hg (1008.0 mb)
Winds: from the NW (320 degrees) at 9 MPH (8 knots; 4.1 m/s)
Visibility: 6 or more miles (10+ km)
Ceiling: at least 12,000 feet AGL
Clouds: sky clear below 12,000 feet AGL
Weather: no significant weather observed at this time

METAR text: UTSS 091130Z 32006KT 280V040 9999 NSC 31/11 Q1008 R27/70D NOSIG
Conditions at: UTSS (SAMARKAND , UZ) observed 1130 UTC 09 August 2022
Temperature: 31.0°C (88°F)
Dewpoint: 11.0°C (52°F) [RH = 29%]
Pressure (altimeter): 29.76 inches Hg (1008.0 mb)
Winds: from the NW (320 degrees) at 7 MPH (6 knots; 3.1 m/s)
Visibility: 6 or more miles (10+ km)
Ceiling: at least 12,000 feet AGL
Clouds: sky clear below 12,000 feet AGL
Weather: no significant weather observed at this time

METAR text: UTSS 091100Z 33004KT 9999 NSC 32/11 Q1008 R27/CLRD70 NOSIG
Conditions at: UTSS (SAMARKAND , UZ) observed 1100 UTC 09 August 2022
Temperature: 32.0°C (90°F)
Dewpoint: 11.0°C (52°F) [RH = 28%]
Pressure (altimeter): 29.76 inches Hg (1008.0 mb)
Winds: from the NNW (330 degrees) at 5 MPH (4 knots; 2.1 m/s)
Visibility: 6 or more miles (10+ km)
Ceiling: at least 12,000 feet AGL
Clouds: sky clear below 12,000 feet AGL
Weather: no significant weather observed at this time

METAR text: UTSS 091030Z 34006KT 290V070 9999 NSC 31/11 Q1008 R27/CLRD70 NOSIG
Conditions at: UTSS (SAMARKAND , UZ) observed 1030 UTC 09 August 2022
Temperature: 31.0°C (88°F)
Dewpoint: 11.0°C (52°F) [RH = 29%]
Pressure (altimeter): 29.76 inches Hg (1008.0 mb)
Winds: from the NNW (340 degrees) at 7 MPH (6 knots; 3.1 m/s)
Visibility: 6 or more miles (10+ km)
Ceiling: at least 12,000 feet AGL
Clouds: sky clear below 12,000 feet AGL
Weather: no significant weather observed at this time

METAR text: UTSS 091000Z 34008KT 290V040 9999 NSC 32/09 Q1008 R27/CLRD70 NOSIG
Conditions at: UTSS (SAMARKAND , UZ) observed 1000 UTC 09 August 2022
Temperature: 32.0°C (90°F)
Dewpoint: 9.0°C (48°F) [RH = 24%]
Pressure (altimeter): 29.76 inches Hg (1008.0 mb)
Winds: from the NNW (340 degrees) at 9 MPH (8 knots; 4.1 m/s)
Visibility: 6 or more miles (10+ km)
Ceiling: at least 12,000 feet AGL
Clouds: sky clear below 12,000 feet AGL
Weather: no significant weather observed at this time

METAR text: UTSS 090930Z 33006KT 260V040 9999 NSC 32/12 Q1008 R27/70D NOSIG
Conditions at: UTSS (SAMARKAND , UZ) observed 0930 UTC 09 August 2022
Temperature: 32.0°C (90°F)
Dewpoint: 12.0°C (54°F) [RH = 30%]
Pressure (altimeter): 29.76 inches Hg (1008.0 mb)
Winds: from the NNW (330 degrees) at 7 MPH (6 knots; 3.1 m/s)
Visibility: 6 or more miles (10+ km)
Ceiling: at least 12,000 feet AGL
Clouds: sky clear below 12,000 feet AGL
Weather: no significant weather observed at this time

METAR text: UTSS 090900Z 34006KT 280V070 9999 NSC 33/11 Q1008 R27/CLRD70 NOSIG
Conditions at: UTSS (SAMARKAND , UZ) observed 0900 UTC 09 August 2022
Temperature: 33.0°C (91°F)
Dewpoint: 11.0°C (52°F) [RH = 26%]
Pressure (altimeter): 29.76 inches Hg (1008.0 mb)
Winds: from the NNW (340 degrees) at 7 MPH (6 knots; 3.1 m/s)
Visibility: 6 or more miles (10+ km)
Ceiling: at least 12,000 feet AGL
Clouds: sky clear below 12,000 feet AGL
Weather: no significant weather observed at this time

METAR text: UTSS 090830Z VRB02KT 9999 NSC 32/11 Q1008 R27/CLRD70 NOSIG
Conditions at: UTSS (SAMARKAND , UZ) observed 0830 UTC 09 August 2022
Temperature: 32.0°C (90°F)
Dewpoint: 11.0°C (52°F) [RH = 28%]
Pressure (altimeter): 29.76 inches Hg (1008.0 mb)
Winds: variable direction winds at 2 MPH (2 knots; 1.0 m/s)
Visibility: 6 or more miles (10+ km)
Ceiling: at least 12,000 feet AGL
Clouds: sky clear below 12,000 feet AGL
Weather: no significant weather observed at this time

METAR text: UTSS 090800Z 03006KT 9999 NSC 32/10 Q1008 R09/CLRD70 NOSIG
Conditions at: UTSS (SAMARKAND , UZ) observed 0800 UTC 09 August 2022
Temperature: 32.0°C (90°F)
Dewpoint: 10.0°C (50°F) [RH = 26%]
Pressure (altimeter): 29.76 inches Hg (1008.0 mb)
Winds: from the NNE (30 degrees) at 7 MPH (6 knots; 3.1 m/s)
Visibility: 6 or more miles (10+ km)
Ceiling: at least 12,000 feet AGL
Clouds: sky clear below 12,000 feet AGL
Weather: no significant weather observed at this time

METAR text: UTSS 090730Z 01006KT 9999 NSC 31/11 Q1009 R09/70D NOSIG
Conditions at: UTSS (SAMARKAND , UZ) observed 0730 UTC 09 August 2022
Temperature: 31.0°C (88°F)
Dewpoint: 11.0°C (52°F) [RH = 29%]
Pressure (altimeter): 29.79 inches Hg (1009.0 mb)
Winds: from the N (10 degrees) at 7 MPH (6 knots; 3.1 m/s)
Visibility: 6 or more miles (10+ km)
Ceiling: at least 12,000 feet AGL
Clouds: sky clear below 12,000 feet AGL
Weather: no significant weather observed at this time

METAR text: UTSS 090700Z 35004KT 270V050 9999 NSC 31/09 Q1009 R09/CLRD70 NOSIG
Conditions at: UTSS (SAMARKAND , UZ) observed 0700 UTC 09 August 2022
Temperature: 31.0°C (88°F)
Dewpoint: 9.0°C (48°F) [RH = 26%]
Pressure (altimeter): 29.79 inches Hg (1009.0 mb)
Winds: from the N (350 degrees) at 5 MPH (4 knots; 2.1 m/s)
Visibility: 6 or more miles (10+ km)
Ceiling: at least 12,000 feet AGL
Clouds: sky clear below 12,000 feet AGL
Weather: no significant weather observed at this time

METAR text: UTSS 090630Z 34004KT 280V050 9999 NSC 31/11 Q1009 R09/70D NOSIG
Conditions at: UTSS (SAMARKAND , UZ) observed 0630 UTC 09 August 2022
Temperature: 31.0°C (88°F)
Dewpoint: 11.0°C (52°F) [RH = 29%]
Pressure (altimeter): 29.79 inches Hg (1009.0 mb)
Winds: from the NNW (340 degrees) at 5 MPH (4 knots; 2.1 m/s)
Visibility: 6 or more miles (10+ km)
Ceiling: at least 12,000 feet AGL
Clouds: sky clear below 12,000 feet AGL
Weather: no significant weather observed at this time

METAR text: UTSS 090600Z 01004KT 280V050 9999 NSC 30/11 Q1009 R09/70D NOSIG
Conditions at: UTSS (SAMARKAND , UZ) observed 0600 UTC 09 August 2022
Temperature: 30.0°C (86°F)
Dewpoint: 11.0°C (52°F) [RH = 31%]
Pressure (altimeter): 29.79 inches Hg (1009.0 mb)
Winds: from the N (10 degrees) at 5 MPH (4 knots; 2.1 m/s)
Visibility: 6 or more miles (10+ km)
Ceiling: at least 12,000 feet AGL
Clouds: sky clear below 12,000 feet AGL
Weather: no significant weather observed at this time

METAR text: UTSS 090530Z 33004KT 9999 NSC 29/09 Q1009 R09/70D NOSIG
Conditions at: UTSS (SAMARKAND , UZ) observed 0530 UTC 09 August 2022
Temperature: 29.0°C (84°F)
Dewpoint: 9.0°C (48°F) [RH = 29%]
Pressure (altimeter): 29.79 inches Hg (1009.0 mb)
Winds: from the NNW (330 degrees) at 5 MPH (4 knots; 2.1 m/s)
Visibility: 6 or more miles (10+ km)
Ceiling: at least 12,000 feet AGL
Clouds: sky clear below 12,000 feet AGL
Weather: no significant weather observed at this time

METAR text: UTSS 090500Z VRB02KT 9999 NSC 30/10 Q1009 R09/70D NOSIG
Conditions at: UTSS (SAMARKAND , UZ) observed 0500 UTC 09 August 2022
Temperature: 30.0°C (86°F)
Dewpoint: 10.0°C (50°F) [RH = 29%]
Pressure (altimeter): 29.79 inches Hg (1009.0 mb)
Winds: variable direction winds at 2 MPH (2 knots; 1.0 m/s)
Visibility: 6 or more miles (10+ km)
Ceiling: at least 12,000 feet AGL
Clouds: sky clear below 12,000 feet AGL
Weather: no significant weather observed at this time

METAR text: UTSS 090430Z VRB02KT 9999 NSC 28/10 Q1009 R09/CLRD70 NOSIG
Conditions at: UTSS (SAMARKAND , UZ) observed 0430 UTC 09 August 2022
Temperature: 28.0°C (82°F)
Dewpoint: 10.0°C (50°F) [RH = 32%]
Pressure (altimeter): 29.79 inches Hg (1009.0 mb)
Winds: variable direction winds at 2 MPH (2 knots; 1.0 m/s)
Visibility: 6 or more miles (10+ km)
Ceiling: at least 12,000 feet AGL
Clouds: sky clear below 12,000 feet AGL
Weather: no significant weather observed at this time

METAR text: UTSS 090400Z 03004KT 360V070 9999 NSC 27/13 Q1009 R09/70D NOSIG
Conditions at: UTSS (SAMARKAND , UZ) observed 0400 UTC 09 August 2022
Temperature: 27.0°C (81°F)
Dewpoint: 13.0°C (55°F) [RH = 42%]
Pressure (altimeter): 29.79 inches Hg (1009.0 mb)
Winds: from the NNE (30 degrees) at 5 MPH (4 knots; 2.1 m/s)
Visibility: 6 or more miles (10+ km)
Ceiling: at least 12,000 feet AGL
Clouds: sky clear below 12,000 feet AGL
Weather: no significant weather observed at this time

METAR text: UTSS 090330Z 36004KT 320V020 9999 NSC 25/14 Q1009 R09/CLRD70 NOSIG
Conditions at: UTSS (SAMARKAND , UZ) observed 0330 UTC 09 August 2022
Temperature: 25.0°C (77°F)
Dewpoint: 14.0°C (57°F) [RH = 50%]
Pressure (altimeter): 29.79 inches Hg (1009.0 mb)
Winds: from the N (360 degrees) at 5 MPH (4 knots; 2.1 m/s)
Visibility: 6 or more miles (10+ km)
Ceiling: at least 12,000 feet AGL
Clouds: sky clear below 12,000 feet AGL
Weather: no significant weather observed at this time

Forecast for: UTSS (SAMARKAND , UZ)
Text: TAF UTSS 101052Z 1012/1112 07012G22KT 9999 NSC
Forecast period: 1200 UTC 10 August 2022 to 1200 UTC 11 August 2022
Forecast type: FROM: standard forecast or significant change
Winds: from the ENE (70 degrees) at 14 MPH (12 knots; 6.2 m/s)
gusting to 25 MPH (22 knots; 11.3 m/s)
Visibility: 6 or more miles (10+ km)
Ceiling: unknown
Clouds: missing
Weather: no significant weather forecast for this period
Text: TEMPO 1012/1015 5000 DU
Forecast period: 1200 to 1500 UTC 10 August 2022
Forecast type: TEMPORARY: The following changes expected for less than half the time period
Visibility: 3 miles (5 km)
Ceiling: unknown
Clouds: missing
Weather: DU  (widespread dust)